KHYA

Barnstable Municipal-Boardman / Polando Field Airport

Hyannis, Massachusetts, USA
METAR KHYA 191456Z 04016G21KT 10SM BKN018 OVC023 21/17 A2998 RMK AO2 SLP152 T02110172 53016
Observed Flight Rules
Aug-19 @ 14:56 UTC (41 minutes ago) Marginal Visual Flight Rules
Wind Visibility Clouds
40° at 16 knots
 Gusting to 21 knots
10 miles
  • Broken at 1,800' AGL
  • Overcast at 2,300' AGL
Temperatures Readings
Current 21°C / 70°F
Dewpoint 17°C / 63°F
Humidity 78%
Altimeter 29.98" Hg
Pressure 1015.2 hPa
Elevation 22
METAR KHYA 191456Z 04016G21KT 10SM BKN018 OVC023 21/17 A2998 RMK AO2 SLP152 T02110172 53016
Observed Flight Rules
Aug-19 @ 14:56 UTC
(41 minutes ago)
MVFR
Wind Visibility
40° at 16 knots
 Gusting to 21 knots
10 miles
Clouds
  • Broken at 1,800' AGL
  • Overcast at 2,300' AGL
Temperature Dewpoint
21°C / 70°F 17°C / 63°F
Humidity Altimeter Pressure
78% 29.98" Hg 1015.2 hPa